Time;durP1;ratioP1;P1;durP2;ratioP2;P2;SDS_P1;SDS_P2;PMS_P1;PMS_P2;Temp;Humidity;BMP_temperature;BMP_pressure;BME280_temperature;BME280_humidity;BME280_pressure;Samples;Min_cycle;Max_cycle;Signal;HPM_P1;HPM_P2
2022/04/12 00:00:15;;;;;;;7.28;4.57;;;9.90;99.90;;;;;;5094455;28;20525;-55
2022/04/12 00:02:41;;;;;;;5.85;3.10;;;9.90;99.90;;;;;;5094246;28;20293;-55
2022/04/12 00:05:11;;;;;;;8.18;4.82;;;9.90;99.90;;;;;;5094128;28;20177;-55
2022/04/12 00:07:38;;;;;;;7.45;4.32;;;10.00;99.90;;;;;;5094282;28;20697;-55
2022/04/12 00:10:03;;;;;;;6.35;4.05;;;9.90;99.90;;;;;;5094174;28;20169;-55
2022/04/12 00:12:29;;;;;;;14.27;7.03;;;9.90;99.90;;;;;;5093623;28;20296;-55
2022/04/12 00:14:54;;;;;;;13.93;7.15;;;10.00;99.90;;;;;;5094358;28;20191;-55
2022/04/12 00:20:05;;;;;;;7.13;4.85;;;9.90;99.90;;;;;;5093813;28;20223;-55
2022/04/12 00:22:30;;;;;;;8.23;4.90;;;9.90;99.90;;;;;;5094010;28;20161;-55
2022/04/12 00:24:56;;;;;;;8.85;4.93;;;9.90;99.90;;;;;;5094313;28;20169;-55
2022/04/12 00:27:21;;;;;;;5.15;3.50;;;9.90;99.90;;;;;;5093937;28;20633;-55
2022/04/12 00:29:47;;;;;;;8.30;5.55;;;9.90;99.90;;;;;;5093778;28;20175;-55
2022/04/12 00:32:12;;;;;;;5.80;3.80;;;9.90;99.90;;;;;;5093822;28;20193;-54
2022/04/12 00:34:38;;;;;;;5.50;3.75;;;9.90;99.90;;;;;;5093711;28;20173;-54
2022/04/12 00:37:04;;;;;;;7.80;3.65;;;9.90;99.90;;;;;;5094007;28;20165;-55
2022/04/12 00:39:30;;;;;;;6.90;3.78;;;9.80;99.90;;;;;;5093805;28;20174;-55
2022/04/12 00:41:57;;;;;;;4.40;3.10;;;9.80;99.90;;;;;;5094099;28;20176;-55
2022/04/12 00:44:22;;;;;;;5.90;3.58;;;9.80;99.90;;;;;;5093741;28;20710;-55
2022/04/12 00:46:48;;;;;;;5.90;4.00;;;9.80;99.90;;;;;;5075278;28;20173;-55
2022/04/12 00:49:13;;;;;;;6.80;3.33;;;9.80;99.90;;;;;;5093525;28;20188;-55
2022/04/12 00:51:39;;;;;;;5.72;3.35;;;9.70;99.90;;;;;;5093403;28;20166;-56
2022/04/12 00:54:05;;;;;;;5.65;3.70;;;9.70;99.90;;;;;;5093586;28;20174;-56
2022/04/12 00:56:31;;;;;;;6.78;3.65;;;9.70;99.90;;;;;;5093276;28;20672;-55
2022/04/12 00:58:57;;;;;;;4.63;3.60;;;9.70;99.90;;;;;;5093572;28;20177;-55
2022/04/12 01:01:24;;;;;;;6.40;3.85;;;9.70;99.90;;;;;;5093628;28;20261;-55
2022/04/12 01:03:49;;;;;;;6.68;4.15;;;9.70;99.90;;;;;;5093348;28;20231;-55
2022/04/12 01:06:15;;;;;;;5.20;3.80;;;9.70;99.90;;;;;;5074941;28;20161;-55
2022/04/12 01:08:40;;;;;;;5.43;3.47;;;9.70;99.90;;;;;;5093070;28;20165;-55
2022/04/12 01:11:08;;;;;;;4.88;3.97;;;9.70;99.90;;;;;;5093068;28;20646;-55
2022/04/12 01:13:34;;;;;;;6.53;3.60;;;9.70;99.90;;;;;;5074761;28;20223;-55
2022/04/12 01:16:00;;;;;;;4.82;3.53;;;9.70;99.90;;;;;;5092990;28;20161;-54
2022/04/12 01:18:25;;;;;;;4.80;3.83;;;9.80;99.90;;;;;;5093338;28;20533;-55
2022/04/12 01:20:51;;;;;;;9.38;4.05;;;9.80;99.90;;;;;;5092807;28;20174;-55
2022/04/12 01:23:36;;;;;;;4.85;3.47;;;9.80;99.90;;;;;;5092565;28;20354;-55
2022/04/12 01:26:02;;;;;;;6.88;4.25;;;9.70;99.90;;;;;;5092561;28;20153;-55
2022/04/12 01:28:27;;;;;;;6.25;3.80;;;9.70;99.90;;;;;;5092800;28;20169;-55
2022/04/12 01:30:54;;;;;;;7.38;4.18;;;9.80;99.90;;;;;;5093053;28;20168;-54
2022/04/12 01:33:20;;;;;;;5.55;3.63;;;9.80;99.90;;;;;;5092674;28;20172;-55
2022/04/12 01:35:46;;;;;;;6.38;4.20;;;9.70;99.90;;;;;;5092622;28;20522;-55
2022/04/12 01:38:12;;;;;;;4.93;3.40;;;9.70;99.90;;;;;;5092785;28;20179;-55
2022/04/12 01:40:37;;;;;;;4.60;3.40;;;9.80;99.90;;;;;;5092661;28;20170;-54
2022/04/12 01:43:03;;;;;;;6.43;4.03;;;9.80;99.90;;;;;;5092653;28;20239;-55
2022/04/12 01:45:28;;;;;;;4.85;3.25;;;9.80;99.90;;;;;;5092559;28;20261;-55
2022/04/12 01:47:56;;;;;;;4.65;3.58;;;9.80;99.90;;;;;;5092744;28;20165;-55
2022/04/12 01:50:21;;;;;;;6.47;3.83;;;9.80;99.90;;;;;;5092350;28;20736;-55
2022/04/12 01:52:47;;;;;;;4.72;3.60;;;9.80;99.90;;;;;;5092596;28;20255;-55
2022/04/12 01:55:14;;;;;;;6.15;3.70;;;9.90;99.90;;;;;;5092302;28;20227;-55
2022/04/12 01:57:39;;;;;;;6.15;3.85;;;9.80;99.90;;;;;;5092619;28;20204;-55
2022/04/12 02:00:07;;;;;;;7.78;4.32;;;9.90;99.90;;;;;;5092264;28;20173;-55
2022/04/12 02:02:33;;;;;;;7.63;4.00;;;9.90;99.90;;;;;;5092086;28;20169;-55
2022/04/12 02:04:59;;;;;;;4.90;3.60;;;9.90;99.90;;;;;;5092162;28;20231;-54
2022/04/12 02:07:24;;;;;;;5.95;4.10;;;9.90;99.90;;;;;;5092456;28;20165;-54
2022/04/12 02:09:50;;;;;;;6.88;4.07;;;9.90;99.90;;;;;;5092158;28;20543;-54
2022/04/12 02:12:15;;;;;;;11.52;4.38;;;9.90;99.90;;;;;;5091909;28;20240;-55
2022/04/12 02:14:41;;;;;;;4.65;3.47;;;9.80;99.90;;;;;;5092336;28;20174;-54
2022/04/12 02:17:06;;;;;;;6.40;3.85;;;9.90;99.90;;;;;;5073924;28;20225;-54
2022/04/12 02:19:32;;;;;;;5.57;3.47;;;9.90;99.90;;;;;;5092032;28;20153;-54
2022/04/12 02:21:57;;;;;;;4.47;3.22;;;9.80;99.90;;;;;;5092056;28;20184;-55
2022/04/12 02:24:23;;;;;;;4.20;3.42;;;9.80;99.90;;;;;;5092380;28;20208;-55
2022/04/12 02:26:48;;;;;;;5.10;4.10;;;9.80;99.90;;;;;;5091918;28;20687;-55
2022/04/12 02:29:14;;;;;;;4.63;3.75;;;9.80;99.90;;;;;;5092024;28;20215;-54
2022/04/12 02:31:41;;;;;;;6.32;3.92;;;9.70;99.90;;;;;;5091916;28;20207;-55
2022/04/12 02:34:06;;;;;;;9.02;3.55;;;9.80;99.90;;;;;;5091934;28;20166;-55
2022/04/12 02:36:32;;;;;;;6.93;3.85;;;9.80;99.90;;;;;;5094806;28;20248;-55
2022/04/12 02:38:57;;;;;;;6.00;3.78;;;9.80;99.90;;;;;;5095983;28;20264;-55
2022/04/12 02:41:23;;;;;;;4.55;3.42;;;9.80;99.90;;;;;;5078043;28;20169;-55
2022/04/12 02:43:48;;;;;;;5.03;4.00;;;9.80;99.90;;;;;;5095866;28;20208;-55
2022/04/12 02:46:14;;;;;;;5.68;4.18;;;9.80;99.90;;;;;;5095838;28;20169;-55
2022/04/12 02:48:40;;;;;;;8.32;3.47;;;9.80;99.90;;;;;;5095746;28;20169;-55
2022/04/12 02:51:05;;;;;;;5.03;3.95;;;9.80;99.90;;;;;;5095866;28;20169;-55
2022/04/12 02:53:31;;;;;;;6.55;3.63;;;9.80;99.90;;;;;;5095761;28;20274;-55
2022/04/12 02:55:57;;;;;;;4.47;3.47;;;9.80;99.90;;;;;;5095980;28;20213;-55
2022/04/12 02:58:22;;;;;;;5.28;3.90;;;9.80;99.90;;;;;;5096031;28;20162;-55
2022/04/12 03:00:48;;;;;;;6.82;4.07;;;9.80;99.90;;;;;;5095585;28;20192;-55
2022/04/12 03:03:13;;;;;;;6.10;3.90;;;9.90;99.90;;;;;;5095392;28;20205;-55
2022/04/12 03:05:39;;;;;;;13.75;6.57;;;9.80;99.90;;;;;;5095401;28;20165;-55
2022/04/12 03:08:05;;;;;;;15.95;7.68;;;9.90;99.90;;;;;;5095447;28;20189;-55
2022/04/12 03:10:30;;;;;;;14.95;7.80;;;9.90;99.90;;;;;;5095431;28;20249;-55
2022/04/12 03:12:56;;;;;;;14.10;8.23;;;9.90;99.90;;;;;;5095506;28;20224;-55
2022/04/12 03:15:21;;;;;;;11.70;6.82;;;9.90;99.90;;;;;;5095587;28;20176;-55
2022/04/12 03:17:47;;;;;;;13.57;8.23;;;9.90;99.90;;;;;;5077074;28;20568;-55
2022/04/12 03:20:12;;;;;;;18.85;9.68;;;9.90;99.90;;;;;;5095265;28;20625;-55
2022/04/12 03:22:41;;;;;;;18.83;9.80;;;9.80;99.90;;;;;;5095139;28;20180;-55
2022/04/12 03:25:09;;;;;;;14.27;8.63;;;9.80;99.90;;;;;;5095378;28;20282;-56
2022/04/12 03:27:34;;;;;;;8.70;5.55;;;9.90;99.90;;;;;;5095143;28;20192;-54
2022/04/12 03:30:00;;;;;;;12.55;7.53;;;9.80;99.90;;;;;;5076881;28;20236;-54
2022/04/12 03:32:25;;;;;;;20.25;9.57;;;9.80;99.90;;;;;;5095276;28;20526;-54
2022/04/12 03:34:51;;;;;;;13.50;6.78;;;9.80;99.90;;;;;;5094827;28;20312;-55
2022/04/12 03:37:16;;;;;;;49.80;25.42;;;9.80;99.90;;;;;;5094866;28;20169;-55
2022/04/12 03:39:44;;;;;;;17.95;9.93;;;9.80;99.90;;;;;;5094954;28;20173;-55
2022/04/12 03:42:11;;;;;;;7.13;5.05;;;9.80;99.90;;;;;;5095034;28;20185;-55
2022/04/12 03:44:37;;;;;;;7.38;4.47;;;9.80;99.90;;;;;;5094919;28;20209;-55
2022/04/12 03:47:03;;;;;;;12.05;8.07;;;9.80;99.90;;;;;;5075724;28;20169;-55
2022/04/12 03:49:29;;;;;;;7.13;4.72;;;9.80;99.90;;;;;;5094913;28;20183;-55
2022/04/12 03:51:54;;;;;;;7.38;4.50;;;9.80;99.90;;;;;;5094892;28;20161;-55
2022/04/12 03:54:20;;;;;;;5.90;4.30;;;9.80;99.90;;;;;;5094491;28;20169;-55
2022/04/12 03:56:45;;;;;;;6.97;4.15;;;9.70;99.90;;;;;;5094480;28;20169;-55
2022/04/12 03:59:11;;;;;;;6.22;4.68;;;9.80;99.90;;;;;;5094474;28;20169;-55
2022/04/12 04:01:37;;;;;;;4.55;3.85;;;9.70;99.90;;;;;;5094711;28;20170;-55
2022/04/12 04:04:02;;;;;;;9.20;4.60;;;9.70;99.90;;;;;;5094562;28;20296;-55
2022/04/12 04:06:28;;;;;;;9.77;6.18;;;9.70;99.90;;;;;;5094407;28;20693;-55
2022/04/12 04:08:54;;;;;;;12.50;6.65;;;9.80;99.90;;;;;;5094541;28;20173;-55
2022/04/12 04:11:19;;;;;;;7.85;4.20;;;9.60;99.90;;;;;;5094237;28;20244;-55
2022/04/12 04:13:45;;;;;;;9.80;4.95;;;9.60;99.90;;;;;;5094060;28;20228;-55
2022/04/12 04:16:11;;;;;;;7.65;4.95;;;9.60;99.90;;;;;;5094077;28;20688;-56
2022/04/12 04:18:37;;;;;;;7.78;4.18;;;9.60;99.90;;;;;;5094137;28;20177;-55
2022/04/12 04:21:03;;;;;;;8.50;4.85;;;9.60;99.90;;;;;;5094037;28;20168;-56
2022/04/12 04:23:29;;;;;;;7.45;4.82;;;9.50;99.90;;;;;;5093877;28;20201;-55
2022/04/12 04:25:55;;;;;;;5.65;4.32;;;9.50;99.90;;;;;;5094204;28;20157;-56
2022/04/12 04:28:23;;;;;;;7.93;4.63;;;9.40;99.90;;;;;;5093879;28;20652;-55
2022/04/12 04:30:49;;;;;;;8.00;4.57;;;9.40;99.90;;;;;;5093838;28;20520;-55
2022/04/12 04:33:17;;;;;;;9.80;4.55;;;9.40;99.90;;;;;;5093754;28;20162;-55
2022/04/12 04:35:46;;;;;;;8.05;5.53;;;9.40;99.90;;;;;;5093943;28;20180;-55
2022/04/12 04:38:12;;;;;;;8.82;5.93;;;9.30;99.90;;;;;;5093700;28;20532;-55
2022/04/12 04:40:38;;;;;;;10.30;5.57;;;9.30;99.90;;;;;;5093598;28;20256;-55
2022/04/12 04:43:05;;;;;;;6.60;4.53;;;9.30;99.90;;;;;;5093812;28;20211;-55
2022/04/12 04:45:30;;;;;;;6.80;4.38;;;9.30;99.90;;;;;;5093575;28;20173;-55
2022/04/12 04:47:58;;;;;;;10.05;6.00;;;9.30;99.90;;;;;;5094019;28;20187;-55
2022/04/12 04:50:29;;;;;;;13.13;8.20;;;9.20;99.90;;;;;;5094049;28;20169;-55
2022/04/12 04:52:55;;;;;;;26.10;15.10;;;9.30;99.90;;;;;;5093977;28;20252;-55
2022/04/12 04:55:21;;;;;;;31.48;17.65;;;9.30;99.90;;;;;;5093401;28;20192;-55
2022/04/12 04:57:47;;;;;;;41.10;22.63;;;9.20;99.90;;;;;;5093348;28;20231;-55
2022/04/12 05:00:17;;;;;;;9.65;5.65;;;9.20;99.90;;;;;;5093275;28;20622;-55
2022/04/12 05:02:47;;;;;;;10.48;5.97;;;9.20;99.90;;;;;;5093413;28;20195;-55
2022/04/12 05:05:13;;;;;;;27.20;12.13;;;9.20;99.90;;;;;;5093208;28;20195;-55
2022/04/12 05:07:41;;;;;;;22.48;12.23;;;9.30;99.90;;;;;;5093105;28;20162;-55
2022/04/12 05:10:08;;;;;;;12.65;5.22;;;9.30;99.90;;;;;;5093018;28;20196;-54
2022/04/12 05:12:34;;;;;;;10.27;6.43;;;9.20;99.90;;;;;;5093153;28;20216;-55
2022/04/12 05:15:00;;;;;;;10.75;5.35;;;9.30;99.90;;;;;;5093045;28;20169;-55
2022/04/12 05:17:26;;;;;;;47.10;25.52;;;9.30;99.90;;;;;;5093302;28;20168;-55
2022/04/12 05:19:53;;;;;;;23.10;12.63;;;9.30;99.90;;;;;;5093427;28;20523;-55
2022/04/12 05:22:19;;;;;;;15.57;10.40;;;9.30;99.90;;;;;;5092903;28;20158;-55
2022/04/12 05:24:45;;;;;;;8.38;6.38;;;9.40;99.90;;;;;;5092761;28;20201;-55
2022/04/12 05:27:11;;;;;;;12.82;7.55;;;9.40;99.90;;;;;;5092815;28;20200;-55
2022/04/12 05:29:37;;;;;;;8.90;6.60;;;9.40;99.90;;;;;;5092852;28;20571;-55
2022/04/12 05:32:03;;;;;;;6.88;5.22;;;9.40;99.90;;;;;;5092683;28;20248;-55
2022/04/12 05:34:29;;;;;;;6.50;4.05;;;9.40;99.90;;;;;;5092691;28;20634;-54
2022/04/12 05:36:54;;;;;;;7.65;4.22;;;9.40;99.90;;;;;;5092917;28;20176;-54
2022/04/12 05:39:20;;;;;;;6.72;4.55;;;9.40;99.90;;;;;;5092609;28;20178;-55
2022/04/12 05:41:45;;;;;;;16.10;14.27;;;9.40;99.90;;;;;;5092548;28;20169;-55
2022/04/12 05:44:11;;;;;;;6.80;4.47;;;9.40;99.90;;;;;;5092681;28;20236;-55
2022/04/12 05:46:36;;;;;;;5.90;4.10;;;9.50;99.90;;;;;;5092441;28;20526;-55
2022/04/12 05:49:02;;;;;;;8.65;4.45;;;9.50;99.90;;;;;;5092396;28;20176;-55
2022/04/12 05:51:28;;;;;;;7.07;4.63;;;9.50;99.90;;;;;;5092418;28;20165;-55
2022/04/12 05:53:53;;;;;;;6.13;4.13;;;9.60;99.90;;;;;;5092581;28;20171;-55
2022/04/12 05:56:19;;;;;;;4.80;3.70;;;9.60;99.90;;;;;;5092232;28;20183;-54
2022/04/12 05:58:44;;;;;;;4.57;3.67;;;9.60;99.90;;;;;;5092192;28;20169;-55
2022/04/12 06:01:10;;;;;;;9.05;4.05;;;9.60;99.90;;;;;;5092151;28;20638;-55
2022/04/12 06:03:35;;;;;;;7.38;3.72;;;9.70;99.90;;;;;;5092200;28;20224;-55
2022/04/12 06:06:01;;;;;;;5.88;3.70;;;9.80;99.90;;;;;;5092241;28;20200;-55
2022/04/12 06:08:27;;;;;;;6.68;3.70;;;9.90;99.90;;;;;;5092455;28;20527;-55
2022/04/12 06:10:52;;;;;;;4.60;3.70;;;9.90;99.90;;;;;;5092041;28;20173;-55
2022/04/12 06:13:18;;;;;;;5.53;3.88;;;10.00;99.90;;;;;;5092063;28;20206;-55
2022/04/12 06:15:44;;;;;;;6.70;3.72;;;10.10;99.90;;;;;;5091960;28;20176;-55
2022/04/12 06:18:10;;;;;;;5.65;4.20;;;10.20;99.90;;;;;;5092008;28;20173;-54
2022/04/12 06:20:36;;;;;;;6.25;3.35;;;10.30;99.90;;;;;;5092249;28;20177;-55
2022/04/12 06:23:02;;;;;;;5.80;3.85;;;10.40;99.90;;;;;;5091765;28;20573;-54
2022/04/12 06:25:27;;;;;;;7.53;3.90;;;10.50;99.90;;;;;;5091674;28;20816;-54
2022/04/12 06:27:53;;;;;;;5.30;4.00;;;10.60;99.90;;;;;;5092341;28;20172;-54
2022/04/12 06:30:23;;;;;;;6.75;3.83;;;10.60;99.90;;;;;;5092135;28;20173;-54
2022/04/12 06:32:49;;;;;;;8.35;4.03;;;10.70;99.90;;;;;;5091931;28;20176;-55
2022/04/12 06:35:15;;;;;;;5.57;3.85;;;10.80;99.90;;;;;;5091938;28;20248;-55
2022/04/12 06:37:43;;;;;;;5.43;4.22;;;10.90;99.90;;;;;;5091813;28;20193;-55
2022/04/12 06:40:11;;;;;;;7.20;3.88;;;10.90;99.90;;;;;;5091973;28;20169;-55
2022/04/12 06:42:37;;;;;;;9.32;4.30;;;10.80;99.90;;;;;;5091588;28;20166;-55
2022/04/12 06:45:03;;;;;;;6.25;4.15;;;10.90;99.90;;;;;;5091379;28;20174;-55
2022/04/12 06:47:29;;;;;;;6.03;4.07;;;10.90;99.90;;;;;;5091701;28;20240;-55
2022/04/12 06:49:55;;;;;;;6.45;4.82;;;10.90;99.90;;;;;;5092160;28;20580;-55
2022/04/12 06:52:22;;;;;;;5.93;4.40;;;10.90;99.90;;;;;;5073647;28;20169;-55
2022/04/12 06:54:49;;;;;;;6.35;4.28;;;10.90;99.90;;;;;;5091785;28;20634;-54
2022/04/12 06:57:15;;;;;;;9.20;4.47;;;11.00;99.90;;;;;;5073515;28;20227;-54
2022/04/12 06:59:41;;;;;;;7.30;4.97;;;11.00;99.90;;;;;;5091688;28;20165;-55
2022/04/12 07:02:06;;;;;;;11.27;5.35;;;11.00;99.90;;;;;;5091717;28;20165;-55
2022/04/12 07:04:32;;;;;;;7.82;4.53;;;11.00;99.90;;;;;;5091845;28;20216;-54
2022/04/12 07:06:59;;;;;;;8.10;5.63;;;11.10;99.90;;;;;;5091652;28;20166;-54
2022/04/12 07:09:28;;;;;;;5.82;4.13;;;11.20;99.90;;;;;;5073738;28;20511;-54
2022/04/12 07:11:55;;;;;;;7.53;4.78;;;11.50;99.90;;;;;;5091530;28;20645;-54
2022/04/12 07:14:21;;;;;;;6.72;5.13;;;11.50;99.90;;;;;;5091362;28;20635;-54
2022/04/12 07:16:47;;;;;;;8.32;4.47;;;11.60;99.90;;;;;;5091296;28;20197;-54
2022/04/12 07:19:12;;;;;;;7.60;5.00;;;11.80;99.90;;;;;;5091246;28;20169;-54
2022/04/12 07:21:39;;;;;;;6.22;5.05;;;11.90;99.90;;;;;;5091487;28;20166;-54
2022/04/12 07:24:05;;;;;;;9.05;4.30;;;11.90;99.90;;;;;;5094869;28;20209;-54
2022/04/12 07:26:32;;;;;;;7.15;4.72;;;11.90;99.90;;;;;;5095172;28;20166;-53
2022/04/12 07:28:58;;;;;;;8.73;4.82;;;11.90;99.90;;;;;;5095037;28;20211;-53
2022/04/12 07:31:24;;;;;;;6.68;4.68;;;12.00;99.90;;;;;;5095255;28;20161;-54
2022/04/12 07:33:50;;;;;;;7.30;4.88;;;12.00;99.90;;;;;;5094622;28;20165;-54
2022/04/12 07:36:15;;;;;;;7.68;4.32;;;14.70;99.90;;;;;;5094742;28;20678;-54
2022/04/12 07:38:41;;;;;;;8.32;5.43;;;12.40;99.90;;;;;;5094614;28;20174;-54
2022/04/12 07:41:08;;;;;;;6.32;5.03;;;12.50;99.90;;;;;;5094659;28;20165;-53
2022/04/12 07:43:34;;;;;;;6.45;4.35;;;12.60;99.90;;;;;;5094415;28;20201;-53
2022/04/12 07:45:59;;;;;;;11.68;4.90;;;12.70;99.90;;;;;;5094661;28;20168;-53
2022/04/12 07:48:25;;;;;;;8.23;4.30;;;12.80;99.90;;;;;;5094886;28;20571;-53
2022/04/12 07:50:50;;;;;;;8.20;4.93;;;13.00;99.90;;;;;;5094630;28;20533;-53
2022/04/12 07:53:16;;;;;;;9.52;5.28;;;13.10;99.90;;;;;;5094589;28;20199;-54
2022/04/12 07:55:41;;;;;;;8.75;5.38;;;13.30;99.90;;;;;;5094546;28;20195;-54
2022/04/12 07:58:07;;;;;;;7.20;5.25;;;13.40;99.90;;;;;;5094495;28;20193;-54
2022/04/12 08:00:32;;;;;;;7.25;4.80;;;13.50;99.90;;;;;;5094507;28;20169;-54
2022/04/12 08:02:58;;;;;;;8.23;5.70;;;13.50;99.90;;;;;;5094015;28;20166;-54
2022/04/12 08:05:23;;;;;;;7.05;4.72;;;13.60;99.90;;;;;;5094335;28;20173;-54
2022/04/12 08:07:49;;;;;;;7.40;4.93;;;13.70;99.90;;;;;;5094036;28;20176;-54
2022/04/12 08:10:18;;;;;;;7.55;5.13;;;13.90;99.90;;;;;;5093969;28;20565;-54
2022/04/12 08:12:45;;;;;;;10.60;5.60;;;14.10;99.90;;;;;;5093887;28;20291;-54
2022/04/12 08:15:12;;;;;;;9.13;5.07;;;14.20;99.90;;;;;;5093910;28;20176;-53
2022/04/12 08:17:39;;;;;;;7.40;4.97;;;14.30;99.90;;;;;;5093566;28;20671;-54
2022/04/12 08:20:06;;;;;;;6.60;4.50;;;14.30;99.90;;;;;;5093811;28;20185;-54
2022/04/12 08:22:32;;;;;;;6.93;4.43;;;14.40;99.90;;;;;;5094050;28;20161;-53
2022/04/12 08:24:58;;;;;;;6.95;4.95;;;14.50;99.90;;;;;;5093520;28;20220;-54
2022/04/12 08:27:24;;;;;;;7.63;4.82;;;14.50;99.90;;;;;;5094389;28;20169;-53
2022/04/12 08:29:50;;;;;;;9.02;5.15;;;14.70;99.90;;;;;;5093347;28;20172;-53
2022/04/12 08:32:16;;;;;;;6.97;4.70;;;14.70;99.90;;;;;;5093589;28;21034;-54
2022/04/12 08:34:42;;;;;;;6.63;4.80;;;14.70;99.90;;;;;;5093456;28;20172;-54
2022/04/12 08:37:08;;;;;;;8.70;4.38;;;14.70;99.90;;;;;;5093094;28;20180;-54
2022/04/12 08:39:33;;;;;;;7.05;4.72;;;14.70;99.90;;;;;;5093766;28;20633;-54
2022/04/12 08:42:01;;;;;;;8.10;4.65;;;14.90;99.90;;;;;;5093419;28;20175;-53
2022/04/12 08:44:26;;;;;;;7.88;4.75;;;14.90;99.90;;;;;;5093617;28;20201;-54
2022/04/12 08:46:56;;;;;;;8.82;4.47;;;15.10;99.90;;;;;;5093608;28;20170;-54
2022/04/12 08:49:23;;;;;;;6.53;5.15;;;15.20;99.90;;;;;;5093606;28;20173;-54
2022/04/12 08:51:49;;;;;;;7.00;5.25;;;15.40;99.90;;;;;;5093172;28;20166;-53
2022/04/12 08:54:16;;;;;;;11.02;4.97;;;15.60;99.90;;;;;;5093098;28;20219;-52
2022/04/12 08:56:44;;;;;;;8.65;5.20;;;15.70;99.90;;;;;;5093013;28;20165;-51
2022/04/12 08:59:10;;;;;;;11.70;5.20;;;15.70;99.90;;;;;;5092744;28;20664;-51
2022/04/12 09:01:35;;;;;;;6.32;5.03;;;16.00;99.90;;;;;;5092892;28;20174;-52
2022/04/12 09:04:01;;;;;;;6.18;4.55;;;16.20;99.90;;;;;;5093202;28;20667;-50
2022/04/12 09:06:27;;;;;;;8.25;4.97;;;16.40;99.90;;;;;;5093015;28;20659;-52
2022/04/12 09:08:53;;;;;;;6.50;4.57;;;16.40;99.90;;;;;;5093464;28;20188;-52
2022/04/12 09:11:18;;;;;;;8.27;4.80;;;16.40;99.90;;;;;;5092701;28;20534;-52
2022/04/12 09:13:59;;;;;;;7.20;5.00;;;16.40;99.90;;;;;;5092596;28;20217;-52
2022/04/12 09:16:25;;;;;;;8.13;4.80;;;16.50;99.90;;;;;;5093048;28;20165;-52
2022/04/12 09:18:50;;;;;;;8.82;4.95;;;16.70;99.90;;;;;;5092524;28;20245;-51
2022/04/12 09:21:20;;;;;;;8.65;5.30;;;16.70;99.90;;;;;;5092497;28;20173;-51
2022/04/12 09:23:50;;;;;;;7.18;5.07;;;16.90;99.90;;;;;;5092528;28;20205;-53
2022/04/12 09:26:21;;;;;;;7.55;4.72;;;17.10;99.90;;;;;;5091973;28;20202;-52
2022/04/12 09:28:46;;;;;;;6.57;4.47;;;17.10;99.90;;;;;;5092177;28;20172;-52
2022/04/12 09:31:14;;;;;;;5.45;3.90;;;17.20;99.90;;;;;;5092513;28;20161;-58
2022/04/12 09:33:40;;;;;;;6.57;4.10;;;17.30;99.90;;;;;;5092417;28;20693;-57
2022/04/12 09:36:06;;;;;;;10.27;4.63;;;17.40;99.90;;;;;;5092746;28;20565;-57
2022/04/12 09:38:37;;;;;;;6.70;4.45;;;17.60;99.90;;;;;;5092464;28;20172;-57
2022/04/12 09:41:16;;;;;;;7.10;4.65;;;17.60;99.90;;;;;;5092213;28;20165;-58
2022/04/12 09:43:51;;;;;;;6.45;4.32;;;17.60;99.90;;;;;;5092273;28;20250;-57
2022/04/12 09:46:17;;;;;;;30.67;6.43;;;17.90;99.90;;;;;;5091152;28;20244;-57
2022/04/12 09:48:48;;;;;;;6.07;4.60;;;17.90;99.90;;;;;;5091893;28;20168;-58
2022/04/12 09:51:14;;;;;;;7.38;4.30;;;17.90;99.90;;;;;;5091886;28;20178;-57
2022/04/12 09:53:41;;;;;;;6.53;3.80;;;17.90;99.90;;;;;;5091702;28;20172;-57
2022/04/12 09:56:19;;;;;;;6.93;3.65;;;18.00;99.90;;;;;;5091509;28;20642;-57
2022/04/12 09:58:50;;;;;;;6.80;3.92;;;18.20;99.90;;;;;;5091622;28;20226;-58
2022/04/12 10:01:17;;;;;;;6.05;3.83;;;18.30;99.90;;;;;;5091852;28;20171;-56
2022/04/12 10:03:45;;;;;;;6.50;3.75;;;18.30;99.90;;;;;;5091766;28;20205;-55
2022/04/12 10:06:14;;;;;;;12.68;3.30;;;18.30;99.90;;;;;;5091966;28;20169;-56
2022/04/12 10:08:40;;;;;;;8.13;4.10;;;18.40;99.90;;;;;;5092012;28;20200;-56
2022/04/12 10:11:08;;;;;;;7.53;3.90;;;18.70;99.90;;;;;;5092171;28;20169;-55
2022/04/12 10:13:33;;;;;;;14.02;7.68;;;18.60;99.90;;;;;;5091768;28;20266;-55
2022/04/12 10:16:00;;;;;;;8.48;5.00;;;18.50;99.90;;;;;;5091682;28;20587;-56
2022/04/12 10:18:28;;;;;;;9.27;3.90;;;18.70;99.90;;;;;;5092098;28;20183;-57
2022/04/12 10:20:53;;;;;;;12.75;7.88;;;18.40;99.90;;;;;;5092152;28;20165;-57
2022/04/12 10:23:23;;;;;;;13.82;8.70;;;18.70;99.90;;;;;;5091924;28;20675;-57
2022/04/12 10:25:54;;;;;;;7.28;4.85;;;18.70;99.90;;;;;;5092156;28;20173;-57
2022/04/12 10:28:23;;;;;;;21.77;13.63;;;18.80;99.90;;;;;;5092066;28;20687;-56
2022/04/12 10:30:49;;;;;;;14.85;9.80;;;18.80;99.90;;;;;;5091919;28;20248;-57
2022/04/12 10:33:15;;;;;;;7.20;5.80;;;19.10;99.90;;;;;;5091992;28;20554;-57
2022/04/12 10:35:50;;;;;;;8.82;6.03;;;19.20;99.80;;;;;;5091964;28;20252;-58
2022/04/12 10:38:17;;;;;;;8.43;6.95;;;19.20;99.90;;;;;;5092112;28;20207;-57
2022/04/12 10:40:51;;;;;;;5.10;4.43;;;19.10;99.00;;;;;;5091789;28;20173;-55
2022/04/12 10:43:29;;;;;;;6.80;3.85;;;19.20;99.10;;;;;;5091990;28;20193;-56
2022/04/12 10:45:57;;;;;;;6.30;4.35;;;19.40;99.70;;;;;;5092365;28;20177;-57
2022/04/12 10:48:29;;;;;;;43.25;28.90;;;19.60;99.80;;;;;;5092231;28;20214;-56
2022/04/12 10:50:56;;;;;;;6.20;3.67;;;19.40;97.60;;;;;;5092277;28;20173;-55
2022/04/12 10:53:39;;;;;;;7.47;4.70;;;19.70;99.10;;;;;;5092016;28;20225;-56
2022/04/12 10:56:11;;;;;;;5.18;4.00;;;19.60;98.10;;;;;;5092169;28;20172;-56
2022/04/12 10:58:37;;;;;;;3.88;3.30;;;19.70;98.50;;;;;;5095976;28;20540;-56
2022/04/12 11:01:05;;;;;;;4.75;3.30;;;19.50;97.60;;;;;;5095884;28;20642;-56
2022/04/12 11:03:45;;;;;;;11.07;8.27;;;19.70;99.70;;;;;;5095785;28;20557;-55
2022/04/12 11:06:12;;;;;;;12.25;8.25;;;19.90;98.60;;;;;;5095434;28;20234;-55
2022/04/12 11:08:38;;;;;;;7.45;5.53;;;20.00;96.90;;;;;;5095787;28;20278;-57
2022/04/12 11:11:04;;;;;;;11.80;6.90;;;20.00;96.10;;;;;;5077689;28;20205;-57
2022/04/12 11:13:34;;;;;;;9.82;6.03;;;20.20;96.00;;;;;;5095240;28;20217;-56
2022/04/12 11:16:01;;;;;;;11.85;5.43;;;20.20;95.90;;;;;;5095350;28;20250;-57
2022/04/12 11:18:56;;;;;;;7.25;5.97;;;20.10;95.50;;;;;;5095634;28;20236;-56
2022/04/12 11:21:23;;;;;;;5.97;4.68;;;20.20;95.20;;;;;;5095229;28;20244;-56
2022/04/12 11:23:51;;;;;;;11.48;8.38;;;20.20;95.40;;;;;;5095033;28;20189;-56
2022/04/12 11:26:40;;;;;;;14.90;8.55;;;20.30;95.70;;;;;;5095208;28;20506;-56
2022/04/12 11:29:08;;;;;;;15.70;10.02;;;20.50;95.70;;;;;;5095395;28;20217;-57
2022/04/12 11:31:39;;;;;;;14.07;10.25;;;20.60;95.70;;;;;;5095127;28;20650;-56
2022/04/12 11:34:06;;;;;;;8.98;4.18;;;20.60;96.50;;;;;;5095050;28;20207;-56
2022/04/12 11:36:32;;;;;;;9.70;6.18;;;20.70;96.30;;;;;;5095019;28;20172;-56
2022/04/12 11:38:57;;;;;;;14.32;7.55;;;20.80;95.70;;;;;;5094884;28;20158;-57
2022/04/12 11:41:23;;;;;;;16.00;8.43;;;20.90;95.70;;;;;;5095331;28;20180;-55
2022/04/12 11:44:02;;;;;;;22.25;13.05;;;21.20;95.30;;;;;;5094705;28;20209;-56
2022/04/12 11:46:34;;;;;;;12.05;6.00;;;21.30;95.20;;;;;;5094539;28;20165;-55
2022/04/12 11:49:07;;;;;;;14.07;8.35;;;21.30;94.30;;;;;;5094810;28;20196;-56
2022/04/12 11:51:50;;;;;;;4.00;2.75;;;21.40;94.70;;;;;;5094688;28;20249;-57
2022/04/12 11:54:23;;;;;;;6.07;2.60;;;21.40;94.00;;;;;;5094566;28;20703;-56
2022/04/12 11:56:59;;;;;;;9.48;3.30;;;21.70;92.70;;;;;;5094825;28;20184;-56
2022/04/12 11:59:25;;;;;;;19.25;13.57;;;21.70;93.00;;;;;;5095090;28;20168;-56
2022/04/12 12:01:53;;;;;;;15.77;9.85;;;22.00;92.90;;;;;;5094717;28;20183;-55
2022/04/12 12:04:19;;;;;;;11.23;5.90;;;22.00;92.40;;;;;;5076242;28;20258;-57
2022/04/12 12:07:05;;;;;;;5.45;2.95;;;22.10;92.30;;;;;;5094412;28;20162;-56
2022/04/12 12:09:32;;;;;;;7.55;4.55;;;22.30;93.00;;;;;;5093742;28;20173;-56
2022/04/12 12:12:05;;;;;;;11.80;5.72;;;22.50;92.10;;;;;;5094178;28;20687;-55
2022/04/12 12:14:30;;;;;;;4.72;2.75;;;22.40;92.30;;;;;;5094502;28;20272;-56
2022/04/12 12:17:13;;;;;;;5.55;2.45;;;22.00;90.90;;;;;;5094553;28;20257;-56
2022/04/12 12:19:40;;;;;;;6.88;2.80;;;21.70;91.30;;;;;;5094138;28;20205;-56
2022/04/12 12:22:11;;;;;;;4.90;2.85;;;21.50;91.00;;;;;;5094065;28;20173;-56
2022/04/12 12:24:54;;;;;;;5.75;3.15;;;21.50;92.20;;;;;;5093977;28;20219;-56
2022/04/12 12:27:35;;;;;;;3.53;2.40;;;21.30;91.70;;;;;;5093879;28;20256;-56
2022/04/12 12:30:04;;;;;;;6.07;3.40;;;21.30;91.70;;;;;;5075821;28;20170;-56
2022/04/12 12:32:34;;;;;;;5.65;2.53;;;21.20;92.00;;;;;;5094105;28;20169;-57
2022/04/12 12:35:02;;;;;;;4.30;2.78;;;21.10;91.80;;;;;;5093855;28;20638;-56
2022/04/12 12:37:28;;;;;;;6.60;3.05;;;21.30;92.30;;;;;;5093870;28;20166;-57
2022/04/12 12:39:54;;;;;;;7.43;3.42;;;21.30;92.20;;;;;;5094043;28;20194;-57
2022/04/12 12:42:21;;;;;;;10.02;6.80;;;21.30;92.60;;;;;;5093892;28;20173;-55
2022/04/12 12:44:47;;;;;;;8.50;4.22;;;21.50;92.80;;;;;;5093475;28;20209;-57
2022/04/12 12:47:12;;;;;;;3.55;3.05;;;21.80;93.20;;;;;;5093553;28;20222;-56
2022/04/12 12:49:40;;;;;;;7.55;3.97;;;21.70;92.00;;;;;;5093609;28;20248;-56